createdAt,value
2018-12-27T00:00:46.837Z,24.70
2018-12-27T00:03:15.089Z,25.35
2018-12-27T00:05:43.422Z,24.60
2018-12-27T00:08:11.778Z,25.70
2018-12-27T00:10:40.069Z,24.97
2018-12-27T00:13:08.378Z,25.53
2018-12-27T00:15:37.055Z,21.63
2018-12-27T00:18:05.396Z,24.67
2018-12-27T00:20:33.713Z,24.50
2018-12-27T00:23:02.057Z,24.27
2018-12-27T00:25:30.368Z,26.87
2018-12-27T00:27:58.768Z,25.23
2018-12-27T00:30:27.333Z,26.73
2018-12-27T00:33:02.929Z,25.20
2018-12-27T00:35:26.365Z,23.47
2018-12-27T00:37:54.943Z,23.10
2018-12-27T00:40:23.838Z,23.73
2018-12-27T00:42:52.408Z,22.20
2018-12-27T00:45:20.995Z,24.82
2018-12-27T00:47:49.560Z,23.73
2018-12-27T00:50:18.148Z,21.93
2018-12-27T00:52:46.839Z,24.13
2018-12-27T00:55:15.772Z,22.13
2018-12-27T00:57:44.337Z,22.87
2018-12-27T01:00:12.923Z,25.13
2018-12-27T01:02:41.493Z,25.87
2018-12-27T01:05:10.073Z,24.57
2018-12-27T01:07:38.639Z,23.10
2018-12-27T01:10:07.899Z,22.90
2018-12-27T01:12:36.470Z,23.57
2018-12-27T01:15:05.058Z,24.63
2018-12-27T01:17:34.273Z,25.17
2018-12-27T01:20:02.860Z,24.13
2018-12-27T01:22:31.509Z,23.35
2018-12-27T01:25:00.154Z,23.80
2018-12-27T01:27:28.790Z,22.40
2018-12-27T01:29:57.719Z,20.73
2018-12-27T01:32:26.432Z,20.93
2018-12-27T01:34:55.012Z,25.10
2018-12-27T01:37:23.573Z,22.13
2018-12-27T01:39:52.157Z,22.87
2018-12-27T01:42:20.717Z,25.67
2018-12-27T01:44:50.945Z,23.43
2018-12-27T01:47:19.508Z,23.73
2018-12-27T01:49:48.241Z,26.00
2018-12-27T01:52:16.814Z,23.83
2018-12-27T01:54:45.388Z,25.00
2018-12-27T01:57:15.009Z,24.57
2018-12-27T01:59:43.930Z,24.10
2018-12-27T02:02:13.194Z,26.27
2018-12-27T02:04:42.132Z,21.73
2018-12-27T02:07:10.698Z,22.60
2018-12-27T02:09:39.290Z,26.75
2018-12-27T02:12:07.948Z,23.47
2018-12-27T02:14:36.536Z,24.60
2018-12-27T02:17:05.110Z,23.70
2018-12-27T02:19:33.983Z,23.30
2018-12-27T02:22:02.651Z,23.07
2018-12-27T02:24:31.231Z,22.37
2018-12-27T02:26:59.803Z,21.67
2018-12-27T02:29:28.390Z,23.30
2018-12-27T02:31:56.960Z,24.72
2018-12-27T02:34:25.549Z,22.22
2018-12-27T02:36:54.113Z,23.17
2018-12-27T02:39:22.697Z,25.33
2018-12-27T02:41:51.261Z,22.22
2018-12-27T02:44:20.230Z,22.10
2018-12-27T02:46:48.807Z,21.20
2018-12-27T02:49:17.385Z,22.00
2018-12-27T02:51:45.946Z,21.30
2018-12-27T02:54:14.534Z,22.43
2018-12-27T02:56:43.099Z,21.93
2018-12-27T02:59:13.812Z,22.73
2018-12-27T03:01:42.402Z,25.07
2018-12-27T03:04:10.985Z,22.25
2018-12-27T03:06:39.576Z,22.03
2018-12-27T03:09:08.141Z,23.70
2018-12-27T03:11:36.813Z,24.00
2018-12-27T03:14:05.375Z,23.23
2018-12-27T03:16:34.023Z,22.00
2018-12-27T03:19:02.586Z,25.07
2018-12-27T03:21:31.175Z,22.20
2018-12-27T03:24:00.074Z,23.67
2018-12-27T03:26:28.670Z,24.10
2018-12-27T03:28:57.549Z,23.53
2018-12-27T03:31:26.642Z,22.65
2018-12-27T03:33:55.210Z,21.43
2018-12-27T03:36:23.793Z,21.10
2018-12-27T03:38:52.354Z,24.30
2018-12-27T03:41:20.938Z,20.93
2018-12-27T03:43:49.501Z,21.60
2018-12-27T03:46:18.087Z,24.20
2018-12-27T03:48:46.651Z,22.27
2018-12-27T03:51:15.240Z,23.27
2018-12-27T03:53:43.812Z,23.15
2018-12-27T03:56:12.560Z,23.07
2018-12-27T03:58:41.109Z,23.12
2018-12-27T04:01:09.769Z,22.07
2018-12-27T04:03:38.334Z,22.70
2018-12-27T04:06:07.003Z,24.00
2018-12-27T04:08:35.555Z,21.57
2018-12-27T04:11:04.157Z,22.47
2018-12-27T04:13:32.713Z,22.47
2018-12-27T04:16:01.414Z,22.43
2018-12-27T04:18:29.722Z,24.60
2018-12-27T04:20:58.054Z,22.73
2018-12-27T04:23:26.441Z,21.67
2018-12-27T04:25:55.142Z,21.90
2018-12-27T04:28:23.461Z,23.50
2018-12-27T04:30:52.331Z,21.80
2018-12-27T04:33:21.415Z,24.97
2018-12-27T04:35:50.094Z,23.33
2018-12-27T04:38:18.541Z,25.67
2018-12-27T04:40:46.799Z,24.03
2018-12-27T04:43:15.298Z,23.00
2018-12-27T04:45:43.616Z,22.47
2018-12-27T04:48:11.956Z,22.00
2018-12-27T04:50:40.271Z,23.03
2018-12-27T04:53:08.588Z,21.33
2018-12-27T04:55:36.919Z,25.03
2018-12-27T04:58:05.229Z,22.03
2018-12-27T05:00:33.566Z,22.30
2018-12-27T05:03:01.904Z,23.43
2018-12-27T05:05:30.217Z,24.77
2018-12-27T05:08:00.383Z,21.90
2018-12-27T05:10:28.882Z,21.90
2018-12-27T05:12:57.198Z,25.70
2018-12-27T05:15:25.529Z,22.00
2018-12-27T05:17:53.839Z,23.55
2018-12-27T05:20:22.184Z,22.63
2018-12-27T05:22:50.493Z,23.32
2018-12-27T05:25:19.041Z,22.70
2018-12-27T05:27:47.648Z,21.50
2018-12-27T05:30:15.978Z,23.70
2018-12-27T05:32:44.295Z,23.10
2018-12-27T05:35:13.002Z,23.73
2018-12-27T05:37:41.833Z,22.77
2018-12-27T05:40:10.239Z,22.77
2018-12-27T05:42:38.551Z,21.97
2018-12-27T05:45:06.938Z,23.80
2018-12-27T05:47:35.272Z,24.80
2018-12-27T05:50:03.924Z,22.90
2018-12-27T05:52:32.254Z,22.43
2018-12-27T05:55:00.680Z,21.77
2018-12-27T05:57:29.085Z,27.37
2018-12-27T05:59:57.405Z,25.23
2018-12-27T06:02:26.130Z,24.27
2018-12-27T06:04:54.810Z,29.43
2018-12-27T06:07:23.504Z,27.37
2018-12-27T06:09:51.837Z,24.40
2018-12-27T06:12:20.470Z,23.83
2018-12-27T06:14:48.805Z,21.23
2018-12-27T06:17:17.113Z,23.40
2018-12-27T06:19:45.627Z,23.18
2018-12-27T06:22:13.953Z,23.60
2018-12-27T06:24:42.289Z,24.30
2018-12-27T06:27:10.612Z,23.73
2018-12-27T06:29:38.921Z,22.37
2018-12-27T06:32:07.254Z,22.83
2018-12-27T06:34:41.398Z,22.23
2018-12-27T06:37:05.642Z,22.30
2018-12-27T06:39:33.958Z,24.33
2018-12-27T06:42:02.316Z,22.82
2018-12-27T06:44:30.649Z,24.52
2018-12-27T06:46:59.035Z,21.33
2018-12-27T06:49:27.372Z,23.80
2018-12-27T06:51:55.691Z,23.90
2018-12-27T06:54:24.497Z,22.77
2018-12-27T06:56:52.812Z,21.77
2018-12-27T06:59:21.141Z,21.40
2018-12-27T07:01:49.452Z,22.50
2018-12-27T07:04:17.858Z,22.47
2018-12-27T07:06:46.204Z,22.45
2018-12-27T07:09:14.884Z,22.30
2018-12-27T07:11:43.200Z,21.80
2018-12-27T07:14:11.530Z,22.00
2018-12-27T07:16:39.836Z,20.83
2018-12-27T07:19:08.517Z,22.20
2018-12-27T07:21:37.112Z,22.27
2018-12-27T07:24:05.519Z,22.93
2018-12-27T07:26:33.829Z,22.37
2018-12-27T07:29:02.158Z,22.53
2018-12-27T07:31:30.477Z,24.10
2018-12-27T07:33:58.807Z,23.97
2018-12-27T07:36:27.592Z,23.67
2018-12-27T07:38:55.924Z,21.30
2018-12-27T07:41:24.254Z,23.30
2018-12-27T07:43:52.593Z,24.07
2018-12-27T07:46:20.928Z,23.70
2018-12-27T07:48:49.251Z,24.82
2018-12-27T07:51:17.577Z,24.03
2018-12-27T07:53:45.887Z,22.77
2018-12-27T07:56:14.221Z,21.73
2018-12-27T07:58:42.633Z,25.70
2018-12-27T08:01:10.965Z,25.30
2018-12-27T08:03:39.279Z,23.35
2018-12-27T08:06:07.598Z,24.30
2018-12-27T08:08:35.974Z,26.43
2018-12-27T08:11:04.387Z,21.90
2018-12-27T08:13:32.818Z,24.10
2018-12-27T08:16:01.539Z,24.73
2018-12-27T08:18:29.866Z,23.25
2018-12-27T08:20:58.205Z,25.15
2018-12-27T08:23:26.536Z,25.47
2018-12-27T08:25:54.879Z,25.13
2018-12-27T08:28:23.483Z,23.30
2018-12-27T08:30:51.820Z,24.03
2018-12-27T08:33:20.140Z,24.00
2018-12-27T08:35:48.464Z,21.80
2018-12-27T08:38:16.783Z,23.30
2018-12-27T08:40:45.121Z,24.53
2018-12-27T08:43:13.437Z,21.90
2018-12-27T08:45:41.967Z,24.20
2018-12-27T08:48:10.298Z,24.33
2018-12-27T08:50:38.621Z,23.53
2018-12-27T08:53:06.954Z,24.70
2018-12-27T08:55:35.270Z,24.57
2018-12-27T08:58:03.613Z,22.50
2018-12-27T09:00:32.070Z,25.82
2018-12-27T09:03:00.381Z,25.50
2018-12-27T09:05:28.716Z,24.70
2018-12-27T09:07:57.046Z,27.13
2018-12-27T09:10:25.495Z,26.17
2018-12-27T09:12:53.811Z,24.83
2018-12-27T09:15:22.149Z,25.63
2018-12-27T09:17:50.465Z,27.27
2018-12-27T09:20:19.025Z,27.20
2018-12-27T09:22:47.349Z,24.97
2018-12-27T09:25:15.670Z,25.65
2018-12-27T09:27:44.022Z,30.77
2018-12-27T09:30:12.343Z,27.63
2018-12-27T09:32:40.681Z,29.20
2018-12-27T09:35:09.914Z,31.47
2018-12-27T09:37:38.279Z,26.47
2018-12-27T09:40:06.990Z,27.40
2018-12-27T09:42:35.324Z,26.70
2018-12-27T09:45:04.511Z,29.45
2018-12-27T09:47:32.849Z,28.20
2018-12-27T09:50:01.168Z,26.33
2018-12-27T09:52:29.509Z,27.03
2018-12-27T09:54:57.999Z,29.52
2018-12-27T09:57:26.314Z,28.10
2018-12-27T09:59:54.653Z,27.70
2018-12-27T10:02:22.981Z,25.67
2018-12-27T10:04:51.382Z,26.50
2018-12-27T10:07:19.696Z,28.47
2018-12-27T10:09:48.034Z,30.67
2018-12-27T10:12:16.349Z,31.97
2018-12-27T10:14:44.686Z,30.17
2018-12-27T10:17:14.051Z,29.55
2018-12-27T10:19:42.383Z,30.97
2018-12-27T10:22:10.706Z,28.43
2018-12-27T10:24:39.021Z,25.63
2018-12-27T10:27:07.358Z,30.87
2018-12-27T10:29:35.671Z,30.20
2018-12-27T10:32:04.006Z,26.67
2018-12-27T10:34:32.325Z,32.20
2018-12-27T10:37:00.666Z,27.80
2018-12-27T10:39:28.986Z,28.47
2018-12-27T10:41:57.329Z,29.90
2018-12-27T10:44:25.642Z,30.13
2018-12-27T10:46:53.966Z,28.80
2018-12-27T10:49:23.273Z,29.57
2018-12-27T10:51:51.763Z,32.70
2018-12-27T10:54:20.263Z,31.17
2018-12-27T10:56:48.934Z,30.50
2018-12-27T10:59:17.273Z,30.73
2018-12-27T11:01:45.936Z,27.67
2018-12-27T11:04:14.270Z,29.97
2018-12-27T11:06:42.909Z,29.90
2018-12-27T11:09:11.244Z,28.47
2018-12-27T11:11:39.871Z,29.10
2018-12-27T11:14:08.206Z,30.40
2018-12-27T11:16:36.522Z,29.50
2018-12-27T11:19:05.773Z,28.70
2018-12-27T11:21:34.082Z,28.67
2018-12-27T11:24:02.389Z,29.40
2018-12-27T11:26:30.735Z,28.25
2018-12-27T11:28:59.345Z,28.92
2018-12-27T11:31:27.885Z,27.87
2018-12-27T11:33:56.209Z,26.20
2018-12-27T11:36:24.541Z,28.03
2018-12-27T11:38:52.938Z,26.27
2018-12-27T11:41:21.524Z,24.87
2018-12-27T11:43:50.170Z,27.70
2018-12-27T11:46:18.481Z,26.10
2018-12-27T11:48:46.815Z,27.63
2018-12-27T11:51:15.136Z,25.70
2018-12-27T11:53:43.474Z,27.03
2018-12-27T11:56:11.785Z,26.50
2018-12-27T11:58:40.196Z,24.63
2018-12-27T12:01:08.573Z,26.27
2018-12-27T12:03:37.125Z,27.70
2018-12-27T12:06:05.802Z,26.10
2018-12-27T12:08:34.137Z,27.07
2018-12-27T12:11:02.564Z,23.60
2018-12-27T12:13:30.975Z,24.82
2018-12-27T12:15:59.290Z,25.27
2018-12-27T12:18:27.623Z,24.93
2018-12-27T12:20:55.949Z,22.40
2018-12-27T12:23:24.256Z,24.47
2018-12-27T12:25:52.607Z,25.57
2018-12-27T12:28:20.997Z,22.67
2018-12-27T12:30:49.335Z,20.60
2018-12-27T12:33:17.713Z,17.33
2018-12-27T12:35:46.385Z,15.87
2018-12-27T12:38:14.974Z,15.63
2018-12-27T12:40:43.304Z,13.00
2018-12-27T12:43:11.626Z,13.77
2018-12-27T12:45:39.947Z,13.50
2018-12-27T12:48:08.277Z,14.27
2018-12-27T12:50:36.594Z,12.47
2018-12-27T12:53:05.073Z,14.83
2018-12-27T12:55:33.741Z,15.67
2018-12-27T12:58:02.151Z,16.23
2018-12-27T13:00:30.919Z,14.63
2018-12-27T13:02:59.327Z,14.40
2018-12-27T13:05:27.644Z,11.83
2018-12-27T13:07:55.965Z,14.27
2018-12-27T13:10:24.301Z,12.23
2018-12-27T13:12:52.931Z,12.20
2018-12-27T13:15:21.721Z,13.27
2018-12-27T13:17:50.037Z,13.80
2018-12-27T13:20:18.380Z,11.70
2018-12-27T13:22:46.700Z,13.83
2018-12-27T13:25:15.033Z,14.93
2018-12-27T13:27:43.357Z,15.55
2018-12-27T13:30:12.027Z,15.00
2018-12-27T13:32:40.390Z,17.77
2018-12-27T13:35:08.887Z,14.43
2018-12-27T13:37:37.219Z,15.38
2018-12-27T13:40:07.176Z,14.30
2018-12-27T13:42:35.618Z,14.73
2018-12-27T13:45:06.311Z,15.50
2018-12-27T13:47:34.997Z,12.53
2018-12-27T13:50:03.792Z,15.63
2018-12-27T13:52:32.567Z,14.70
2018-12-27T13:55:00.883Z,15.60
2018-12-27T13:57:29.281Z,14.03
2018-12-27T13:59:57.615Z,15.10
2018-12-27T14:02:25.933Z,14.23
2018-12-27T14:04:54.273Z,13.65
2018-12-27T14:07:22.587Z,11.97
2018-12-27T14:09:50.911Z,11.37
2018-12-27T14:12:19.251Z,11.50
2018-12-27T14:14:47.899Z,13.85
2018-12-27T14:17:16.238Z,13.20
2018-12-27T14:19:44.636Z,10.80
2018-12-27T14:22:12.985Z,9.93
2018-12-27T14:24:41.302Z,9.53
2018-12-27T14:27:09.925Z,7.47
2018-12-27T14:29:38.241Z,9.40
2018-12-27T14:32:06.567Z,9.67
2018-12-27T14:34:34.898Z,10.87
2018-12-27T14:37:03.230Z,11.50
2018-12-27T14:39:31.637Z,11.40
2018-12-27T14:42:00.236Z,10.72
2018-12-27T14:44:28.550Z,12.03
2018-12-27T14:46:56.888Z,11.80
2018-12-27T14:49:25.275Z,12.17
2018-12-27T14:51:53.606Z,13.50
2018-12-27T14:54:22.310Z,14.10
2018-12-27T14:56:50.646Z,13.40
2018-12-27T14:59:19.026Z,12.30
2018-12-27T15:01:47.360Z,13.13
2018-12-27T15:04:15.678Z,17.90
2018-12-27T15:06:47.844Z,17.13
2018-12-27T15:09:14.457Z,16.27
2018-12-27T15:11:42.947Z,14.40
2018-12-27T15:14:11.291Z,17.00
2018-12-27T15:16:39.636Z,15.67
2018-12-27T15:19:08.029Z,18.10
2018-12-27T15:21:36.345Z,17.80
2018-12-27T15:24:04.692Z,17.93
2018-12-27T15:26:33.014Z,16.00
2018-12-27T15:29:01.354Z,18.60
2018-12-27T15:31:29.670Z,16.27
2018-12-27T15:33:58.006Z,17.90
2018-12-27T15:36:26.315Z,19.20
2018-12-27T15:38:54.664Z,19.10
2018-12-27T15:41:23.301Z,21.17
2018-12-27T15:43:51.687Z,18.70
2018-12-27T15:46:20.027Z,18.50
2018-12-27T15:48:48.411Z,18.80
2018-12-27T15:51:16.767Z,19.30
2018-12-27T15:53:45.091Z,20.17
2018-12-27T15:56:13.796Z,18.07
2018-12-27T15:58:42.112Z,22.50
2018-12-27T16:01:10.449Z,21.57
2018-12-27T16:03:39.151Z,19.17
2018-12-27T16:06:07.482Z,18.50
2018-12-27T16:08:35.795Z,17.97
2018-12-27T16:11:04.130Z,24.90
2018-12-27T16:13:32.451Z,23.40
2018-12-27T16:16:00.764Z,19.27
2018-12-27T16:18:29.097Z,17.03
2018-12-27T16:20:57.419Z,19.07
2018-12-27T16:23:25.777Z,22.53
2018-12-27T16:25:54.482Z,21.30
2018-12-27T16:28:22.806Z,16.00
2018-12-27T16:30:51.147Z,19.20
2018-12-27T16:33:19.837Z,23.43
2018-12-27T16:35:48.163Z,22.20
2018-12-27T16:38:16.627Z,19.80
2018-12-27T16:40:44.944Z,21.57
2018-12-27T16:43:13.475Z,30.88
2018-12-27T16:45:41.860Z,25.13
2018-12-27T16:48:10.209Z,52.63
2018-12-27T16:50:38.521Z,50.93
2018-12-27T16:53:06.870Z,23.27
2018-12-27T16:55:35.200Z,22.83
2018-12-27T16:58:03.535Z,27.83
2018-12-27T17:00:31.918Z,25.80
2018-12-27T17:03:01.201Z,22.93
2018-12-27T17:05:29.515Z,20.47
2018-12-27T17:07:58.301Z,19.97
2018-12-27T17:10:26.692Z,20.40
2018-12-27T17:12:55.000Z,24.63
2018-12-27T17:15:23.349Z,20.62
2018-12-27T17:17:51.668Z,18.33
2018-12-27T17:20:20.002Z,18.20
2018-12-27T17:22:48.320Z,19.00
2018-12-27T17:25:16.662Z,19.90
2018-12-27T17:27:44.985Z,20.67
2018-12-27T17:30:13.327Z,21.10
2018-12-27T17:32:41.645Z,19.57
2018-12-27T17:35:09.973Z,20.67
2018-12-27T17:37:38.305Z,22.10
2018-12-27T17:40:07.095Z,20.60
2018-12-27T17:42:35.430Z,23.40
2018-12-27T17:45:03.813Z,19.77
2018-12-27T17:47:32.217Z,17.65
2018-12-27T17:50:00.543Z,18.43
2018-12-27T17:52:30.343Z,20.77
2018-12-27T17:54:59.307Z,19.25
2018-12-27T17:57:27.649Z,25.90
2018-12-27T17:59:56.472Z,23.47
2018-12-27T18:02:24.806Z,21.70
2018-12-27T18:04:53.206Z,19.30
2018-12-27T18:07:21.595Z,20.33
2018-12-27T18:09:49.927Z,21.53
2018-12-27T18:12:18.242Z,21.17
2018-12-27T18:14:47.177Z,21.60
2018-12-27T18:17:15.639Z,23.13
2018-12-27T18:19:43.976Z,23.42
2018-12-27T18:22:12.624Z,22.13
2018-12-27T18:24:40.938Z,20.37
2018-12-27T18:27:09.272Z,24.10
2018-12-27T18:29:37.604Z,22.20
2018-12-27T18:32:06.082Z,22.30
2018-12-27T18:34:34.396Z,26.80
2018-12-27T18:37:02.841Z,31.20
2018-12-27T18:39:31.165Z,26.68
2018-12-27T18:41:59.506Z,22.00
2018-12-27T18:44:27.958Z,26.27
2018-12-27T18:46:56.302Z,24.20
2018-12-27T18:49:24.958Z,21.50
2018-12-27T18:51:53.274Z,21.07
2018-12-27T18:54:21.690Z,22.30
2018-12-27T18:56:50.080Z,20.60
2018-12-27T18:59:18.396Z,23.80
2018-12-27T19:01:46.818Z,29.27
2018-12-27T19:04:15.137Z,29.72
2018-12-27T19:06:43.693Z,27.50
2018-12-27T19:09:12.015Z,25.70
2018-12-27T19:12:17.053Z,24.00
2018-12-27T19:14:45.367Z,26.30
2018-12-27T19:17:19.787Z,28.10
2018-12-27T19:19:48.125Z,30.40
2018-12-27T19:22:19.172Z,33.80
2018-12-27T19:24:47.504Z,34.20
2018-12-27T19:27:15.820Z,27.60
2018-12-27T19:29:44.146Z,22.77
2018-12-27T19:32:12.478Z,21.57
2018-12-27T19:34:40.821Z,24.10
2018-12-27T19:37:09.212Z,23.77
2018-12-27T19:39:37.837Z,27.23
2018-12-27T19:42:06.155Z,27.27
2018-12-27T19:44:34.666Z,25.60
2018-12-27T19:47:03.281Z,24.10
2018-12-27T19:49:31.617Z,25.47
2018-12-27T19:52:00.049Z,34.37
2018-12-27T19:54:32.031Z,37.63
2018-12-27T19:56:58.779Z,28.27
2018-12-27T19:59:27.160Z,26.40
2018-12-27T20:01:56.806Z,25.20
2018-12-27T20:04:25.543Z,26.00
2018-12-27T20:06:53.912Z,27.40
2018-12-27T20:09:22.742Z,26.05
2018-12-27T20:11:51.131Z,27.23
2018-12-27T20:14:19.653Z,28.80
2018-12-27T20:16:48.054Z,26.77
2018-12-27T20:19:16.365Z,26.53
2018-12-27T20:21:44.769Z,27.27
2018-12-27T20:24:13.173Z,28.20
2018-12-27T20:26:41.482Z,27.70
2018-12-27T20:29:09.811Z,25.63
2018-12-27T20:31:38.193Z,27.37
2018-12-27T20:34:06.552Z,25.77
2018-12-27T20:36:34.881Z,27.93
2018-12-27T20:39:04.293Z,30.13
2018-12-27T20:41:33.004Z,27.00
2018-12-27T20:44:01.332Z,28.70
2018-12-27T20:46:29.746Z,31.90
2018-12-27T20:48:58.107Z,27.87
2018-12-27T20:51:26.439Z,29.70
2018-12-27T20:53:55.104Z,26.75
2018-12-27T20:56:23.452Z,32.70
2018-12-27T20:58:51.836Z,27.80
2018-12-27T21:01:20.153Z,26.60
2018-12-27T21:03:48.494Z,26.20
2018-12-27T21:06:16.827Z,25.37
2018-12-27T21:08:45.183Z,26.23
2018-12-27T21:11:13.533Z,25.43
2018-12-27T21:13:41.935Z,25.67
2018-12-27T21:16:10.246Z,25.00
2018-12-27T21:18:38.568Z,24.60
2018-12-27T21:21:06.982Z,25.67
2018-12-27T21:23:35.298Z,28.27
2018-12-27T21:26:04.112Z,28.53
2018-12-27T21:28:32.784Z,30.87
2018-12-27T21:31:01.440Z,26.40
2018-12-27T21:33:29.776Z,29.47
2018-12-27T21:35:58.090Z,34.37
2018-12-27T21:38:26.410Z,35.43
2018-12-27T21:40:54.746Z,29.60
2018-12-27T21:43:23.064Z,27.93
2018-12-27T21:45:51.386Z,30.27
2018-12-27T21:48:20.018Z,29.00
2018-12-27T21:50:48.507Z,30.40
2018-12-27T21:53:16.864Z,27.57
2018-12-27T21:55:45.177Z,29.37
2018-12-27T21:58:13.518Z,28.90
2018-12-27T22:00:41.840Z,26.15
2018-12-27T22:03:10.251Z,29.77
2018-12-27T22:05:38.567Z,26.33
2018-12-27T22:08:06.908Z,26.80
2018-12-27T22:10:36.117Z,26.65
2018-12-27T22:13:04.582Z,29.77
2018-12-27T22:15:32.891Z,27.20
2018-12-27T22:18:01.225Z,28.00
2018-12-27T22:20:29.536Z,30.57
2018-12-27T22:22:57.855Z,28.33
2018-12-27T22:25:26.215Z,27.10
2018-12-27T22:27:54.846Z,25.57
2018-12-27T22:30:23.179Z,26.00
2018-12-27T22:32:51.608Z,25.97
2018-12-27T22:35:19.959Z,26.20
2018-12-27T22:37:48.379Z,23.73
2018-12-27T22:40:16.702Z,24.63
2018-12-27T22:42:45.045Z,22.87
2018-12-27T22:45:13.377Z,23.80
2018-12-27T22:47:41.698Z,23.30
2018-12-27T22:50:10.014Z,20.60
2018-12-27T22:52:38.360Z,23.03
2018-12-27T22:55:07.036Z,25.93
2018-12-27T22:57:35.373Z,29.27
2018-12-27T23:00:05.416Z,25.67
2018-12-27T23:02:34.128Z,23.83
2018-12-27T23:05:02.814Z,27.47
2018-12-27T23:07:31.200Z,24.50
2018-12-27T23:09:59.538Z,30.30
2018-12-27T23:12:27.870Z,26.80
2018-12-27T23:14:56.544Z,26.70
2018-12-27T23:17:24.918Z,27.63
2018-12-27T23:19:53.239Z,23.85
2018-12-27T23:22:21.575Z,23.38
2018-12-27T23:24:49.893Z,34.18
2018-12-27T23:27:18.662Z,23.90
2018-12-27T23:29:47.004Z,26.73
2018-12-27T23:32:15.317Z,25.00
2018-12-27T23:34:44.004Z,26.00
2018-12-27T23:37:12.318Z,27.48
2018-12-27T23:39:40.869Z,28.55
2018-12-27T23:42:09.185Z,29.40
2018-12-27T23:44:37.501Z,28.40
2018-12-27T23:47:05.832Z,26.20
2018-12-27T23:49:34.500Z,24.77
2018-12-27T23:52:02.845Z,27.62
2018-12-27T23:54:31.574Z,25.47
2018-12-27T23:56:59.989Z,27.25
2018-12-27T23:59:28.318Z,27.60
